F/V Adeline Stephen — FGUF — position and weather

sailwx.info

Track history (hours):
 
Tides and Currents Weather Stations Pressure Air Temp Water Temp Dewpoint Dewpoint Depression Visibility Wind Speed Wind Dir Waves Ship Positions

F/V Adeline Stephen

Last reported at 2015-May-27 21:33 UTC. Time now 2015-May-27 21:52 UTC.
Position N 47°38' W 003°38'.

Length 18 m.

Type: Fishing. MMSI: 228929000.

Date/timePositionNaut miles runAvg speedWind from/ knotsBaromVisibWave heightAir tempDewpointWater temp
2015-May-27 21:33N 47°38' W 003°38'65 7.2
2015-May-27 12:26N 47°13' W 005°08'3 0.8
2015-May-27 09:07N 47°15' W 005°10'  
2015-May-23 16:16N 47°09' W 003°22'6 8.6
2015-May-23 15:33N 47°15' W 003°22'9 8.7
2015-May-23 14:33N 47°24' W 003°22'9 8.5
2015-May-23 13:33N 47°32' W 003°22'8 8.5
2015-May-23 12:33N 47°41' W 003°22'3 3.2
2015-May-23 11:33N 47°44' W 003°22'0 0.0
2015-May-23 10:33N 47°44' W 003°22'0 0.0
2015-May-23 09:33N 47°44' W 003°22'0 0.0
2015-May-23 08:33N 47°44' W 003°22'7 7.2
2015-May-23 07:33N 47°40' W 003°31'  
2015-May-19 13:05N 47°43' W 003°42'4 6.3
2015-May-19 12:28N 47°42' W 003°36'6 6.3
2015-May-19 11:33N 47°41' W 003°28'5 5.0
2015-May-19 10:33N 47°44' W 003°22'0 0.0
2015-May-19 09:33N 47°44' W 003°22'0 0.0
2015-May-19 08:33N 47°44' W 003°22'  
Track history (hours):
 
Tides and Currents Weather Stations Pressure Air Temp Water Temp Dewpoint Dewpoint Depression Visibility Wind Speed Wind Dir Waves Ship Positions

F/V Adeline Stephen

Last reported at 2015-May-27 21:33 UTC. Time now 2015-May-27 21:52 UTC.
Position N 47°38' W 003°38'.

Length 18 m.

Type: Fishing. MMSI: 228929000.

Date/timePositionNaut miles runAvg speedWind from/ knotsBaromVisibWave heightAir tempDewpointWater temp
2015-May-27 21:33N 47°38' W 003°38'65 7.2
2015-May-27 12:26N 47°13' W 005°08'3 0.8
2015-May-27 09:07N 47°15' W 005°10'  
2015-May-23 16:16N 47°09' W 003°22'6 8.6
2015-May-23 15:33N 47°15' W 003°22'9 8.7
2015-May-23 14:33N 47°24' W 003°22'9 8.5
2015-May-23 13:33N 47°32' W 003°22'8 8.5
2015-May-23 12:33N 47°41' W 003°22'3 3.2
2015-May-23 11:33N 47°44' W 003°22'0 0.0
2015-May-23 10:33N 47°44' W 003°22'0 0.0
2015-May-23 09:33N 47°44' W 003°22'0 0.0
2015-May-23 08:33N 47°44' W 003°22'7 7.2
2015-May-23 07:33N 47°40' W 003°31'  
2015-May-19 13:05N 47°43' W 003°42'4 6.3
2015-May-19 12:28N 47°42' W 003°36'6 6.3
2015-May-19 11:33N 47°41' W 003°28'5 5.0
2015-May-19 10:33N 47°44' W 003°22'0 0.0
2015-May-19 09:33N 47°44' W 003°22'0 0.0
2015-May-19 08:33N 47°44' W 003°22'  

Dump ship's entire track history